• Join FlightAware (Why Join?)
  • Login
  • US Flag 
07:33PM EDT


 

Airport Tracker/Info


-or-


 

Live Flight TrackerFlight Track Log ✈ UAL33 ✈ 29-Jul-2013 ✈ KIAH - KORD

Flight Track Log - Related Links

Times and Time Zones

All times are in EDT time to prevent confusion due to time zone crossing. See the UAL33 flight status page for this flight to view local times or setup timezone preferences in your user account.

Time Position Orientation Groundspeed Altitude Reporting Facility
EDT Latitude Longitude Course Direction KTS MPH feet Rate Location/Type
06:19PM 29.9841 -95.3556 270° West 86 99  Level FlightAware ADS-B
06:19PM 29.9715 -95.3478 152° Southeast 86 99 1,020 Level FlightAware ADS-B
06:20PM 29.9593 -95.3404 152° Southeast 170 196 700 2,580 Climbing FlightAware ADS-B
06:20PM 29.9508 -95.3370 161° South 165 190 1,300 2,760 Climbing FlightAware ADS-B
06:20PM 29.9481 -95.3368 176° South 165 190 1,400 2,520 Climbing FlightAware ADS-B
06:20PM 29.9448 -95.3370 183° South 169 194 1,600 1,980 Climbing FlightAware ADS-B
06:20PM 29.9412 -95.3381 195° South 173 199 1,700 1,380 Climbing FlightAware ADS-B
06:20PM 29.9325 -95.3449 214° Southwest 195 224 2,000 1,080 Climbing FlightAware ADS-B
06:20PM 29.9301 -95.3485 232° Southwest 204 235 2,000 1,320 Level FlightAware ADS-B
06:20PM 29.9278 -95.3534 242° Southwest 216 249 2,200 1,620 Climbing FlightAware ADS-B
06:21PM 29.9262 -95.3593 253° West 226 260 2,300 1,980 Climbing FlightAware ADS-B
06:21PM 29.9255 -95.3636 259° West 231 266 2,500 2,640 Climbing FlightAware ADS-B
06:21PM 29.9254 -95.3718 269° West 242 278 2,700 1,980 Climbing FlightAware ADS-B
06:21PM 29.9259 -95.3758 278° West 248 285 2,800 1,980 Climbing FlightAware ADS-B
06:21PM 29.9267 -95.3797 283° West 253 291 2,900 1,680 Climbing FlightAware ADS-B
06:21PM 29.9282 -95.3846 289° West 258 297 3,000 2,580 Climbing FlightAware ADS-B
06:21PM 29.9360 -95.3986 310° West 270 311 3,600 3,000 Climbing FlightAware ADS-B
06:21PM 29.9419 -95.4047 321° Northwest 275 316 3,900 2,760 Climbing FlightAware ADS-B
06:21PM 29.9493 -95.4101 330° Northwest 280 322 4,200 2,400 Climbing FlightAware ADS-B
06:21PM 29.9534 -95.4122 336° Northwest 284 327 4,300 1,260 Climbing FlightAware ADS-B
06:22PM 29.9912 -95.4196 354° North 285 328 4,900 360 Climbing FlightAware ADS-B
06:23PM 30.0695 -95.4271 355° North 287 330 4,900 1,260 Level FlightAware ADS-B
06:26PM 30.2880 -95.4664 327° Northwest 295 339 9,800 1,800 Climbing FlightAware ADS-B
06:26PM 30.3229 -95.4942 325° Northwest 321 369 10,900 2,280 Climbing FlightAware ADS-B
06:27PM 30.3616 -95.5239 326° Northwest 346 398 12,100 2,460 Climbing FlightAware ADS-B
06:27PM 30.4047 -95.5557 328° Northwest 368 423 13,400 2,760 Climbing FlightAware ADS-B
06:28PM 30.5026 -95.6278 328° Northwest 390 449 16,600 2,760 Climbing FlightAware ADS-B
06:29PM 30.5430 -95.6552 330° Northwest 398 458 17,700 2,460 Climbing FlightAware ADS-B
06:30PM 30.6768 -95.7275 335° Northwest 419 482 20,900 2,400 Climbing FlightAware ADS-B
06:30PM 30.7309 -95.7565 335° Northwest 426 490 22,100 2,400 Climbing FlightAware ADS-B
06:31PM 30.7849 -95.7853 335° Northwest 430 495 23,300 2,220 Climbing FlightAware ADS-B
06:31PM 30.8415 -95.8158 335° Northwest 438 504 24,400 1,920 Climbing FlightAware ADS-B
06:32PM 30.9611 -95.8800 335° Northwest 456 525 26,400 1,980 Climbing FlightAware ADS-B
06:34PM 31.1010 -95.9549 337° Northwest 462 532 28,900 1,680 Climbing FlightAware ADS-B
06:36PM 31.3334 -96.0164 349° North 487 560 31,500 1,500 Climbing FlightAware ADS-B
06:37PM 31.4837 -96.0350 355° North 494 568 33,300 1,560 Climbing FlightAware ADS-B
06:37PM 31.5632 -96.0426 355° North 496 571 34,200 1,740 Climbing FlightAware ADS-B
06:38PM 31.6324 -96.0492 355° North 492 566 35,200 1,980 Climbing FlightAware ADS-B
06:39PM 31.7715 -96.0624 355° North 479 551 37,300 1,560 Climbing FlightAware ADS-B
06:41PM 32.0640 -96.0900 356° North 459 528 40,500 780 Climbing FlightAware
06:43PM 32.3640 -96.1190 355° North 454 522 41,000 120 Climbing FlightAware
06:44PM 32.4742 -96.1299 355° North 454 522 41,000  Level FlightAware ADS-B
06:46PM 32.6550 -96.1480 355° North 450 518 41,000  Level FlightAware
06:46PM 32.7290 -96.1550 355° North 450 518 41,000  Level FlightAware
06:47PM 32.8020 -96.1620 355° North 450 518 41,000  Level FlightAware
06:47PM 32.8720 -96.1690 355° North 449 517 41,000  Level FlightAware
06:48PM 32.9490 -96.1760 356° North 450 518 41,000  Level FlightAware
06:49PM 33.0220 -96.1830 355° North 450 518 41,000  Level FlightAware
06:49PM 33.0940 -96.1900 355° North 451 519 41,000  Level FlightAware
06:50PM 33.1640 -96.1830 North 457 526 41,000  Level FlightAware
06:50PM 33.2290 -96.1410 28° Northeast 466 536 41,000  Level FlightAware
06:51PM 33.2930 -96.0860 36° Northeast 466 536 41,000  Level FlightAware
06:52PM 33.3490 -96.0380 36° Northeast 466 536 41,000  Level FlightAware
06:52PM 33.4150 -95.9830 35° Northeast 465 535 41,000  Level FlightAware
06:53PM 33.4850 -95.9350 30° Northeast 463 533 41,000  Level FlightAware
06:53PM 33.5400 -95.8990 29° Northeast 464 534 41,000  Level FlightAware
06:54PM 33.6110 -95.8540 28° Northeast 463 533 41,000  Level FlightAware
06:54PM 33.6366 -95.8379 28° Northeast 463 533 41,000  Level FlightAware ADS-B
06:55PM 33.7396 -95.7721 28° Northeast 463 533 41,000  Level FlightAware ADS-B
06:56PM 33.8170 -95.7220 28° Northeast 466 536 41,000  Level FlightAware
06:56PM 33.8760 -95.6850 28° Northeast 465 535 41,000  Level FlightAware
06:57PM 33.9390 -95.6440 28° Northeast 463 533 41,000  Level FlightAware
06:57PM 34.0030 -95.6030 28° Northeast 462 532 41,000  Level FlightAware
06:58PM 34.0730 -95.5580 28° Northeast 462 532 41,000  Level FlightAware
06:59PM 34.1420 -95.5130 28° Northeast 462 532 41,000  Level FlightAware
06:59PM 34.2090 -95.4690 29° Northeast 462 532 41,000  Level FlightAware
07:00PM 34.2740 -95.4270 28° Northeast 462 532 41,000  Level FlightAware
07:00PM 34.3390 -95.3850 28° Northeast 461 531 41,000  Level FlightAware
07:01PM 34.4010 -95.3450 28° Northeast 461 531 41,000  Level FlightAware
07:02PM 34.4920 -95.2860 28° Northeast 461 531 41,000  Level FlightAware
07:03PM 34.6110 -95.2080 28° Northeast 462 532 41,000  Level FlightAware
07:03PM 34.6920 -95.1540 29° Northeast 464 534 41,000  Level FlightAware
07:04PM 34.7430 -95.1200 29° Northeast 463 533 41,000  Level FlightAware
07:05PM 34.8210 -95.0700 28° Northeast 464 534 41,000  Level FlightAware
07:05PM 34.8800 -95.0310 28° Northeast 464 534 41,000  Level FlightAware
07:06PM 34.9380 -94.9940 28° Northeast 464 534 41,000  Level FlightAware
07:06PM 34.9530 -94.9820 33° Northeast 464 534 41,000  Level FlightAware
07:07PM 35.0360 -94.9270 28° Northeast 465 535 41,000  Level FlightAware
07:08PM 35.1600 -94.8450 28° Northeast 466 536 41,000  Level FlightAware
07:08PM 35.2350 -94.7940 29° Northeast 469 540 41,000  Level FlightAware
07:09PM 35.3080 -94.7460 28° Northeast 474 545 41,000  Level FlightAware
07:09PM 35.3680 -94.7060 29° Northeast 474 545 41,000  Level FlightAware
07:10PM 35.4420 -94.6560 29° Northeast 473 544 41,000  Level FlightAware
07:11PM 35.5080 -94.6120 28° Northeast 474 545 41,000  Level FlightAware
07:11PM 35.5930 -94.5540 29° Northeast 474 545 41,000  Level FlightAware
07:12PM 35.6520 -94.5150 28° Northeast 475 547 41,000  Level FlightAware
07:12PM 35.7320 -94.4610 29° Northeast 477 549 41,000  Level FlightAware
07:13PM 35.7940 -94.4180 29° Northeast 471 542 41,000  Level FlightAware
07:14PM 35.8610 -94.3730 29° Northeast 468 539 41,000  Level FlightAware
07:14PM 35.9300 -94.3260 29° Northeast 467 537 41,000  Level FlightAware
07:15PM 35.9980 -94.2790 29° Northeast 467 537 41,000  Level FlightAware
07:15PM 36.0600 -94.2380 28° Northeast 469 540 41,000  Level FlightAware
07:16PM 36.1290 -94.1900 29° Northeast 470 541 41,000  Level FlightAware
07:17PM 36.1970 -94.1430 29° Northeast 471 542 41,000  Level FlightAware
07:17PM 36.2580 -94.1020 28° Northeast 471 542 41,000  Level FlightAware
07:18PM 36.3310 -94.0510 29° Northeast 472 543 41,000  Level FlightAware
07:18PM 36.3910 -94.0100 29° Northeast 473 544 41,000  Level FlightAware
07:19PM 36.4600 -93.9620 29° Northeast 474 545 41,000  Level FlightAware
07:19PM 36.5220 -93.9190 29° Northeast 475 547 41,000  Level FlightAware
07:20PM 36.5990 -93.8660 29° Northeast 476 548 41,000  Level FlightAware
07:21PM 36.6600 -93.8230 29° Northeast 476 548 41,000  Level FlightAware
07:21PM 36.7260 -93.7770 29° Northeast 479 551 41,000  Level FlightAware
07:22PM 36.8150 -93.7150 29° Northeast 483 556 41,000  Level FlightAware
07:23PM 36.8890 -93.6640 29° Northeast 481 554 41,000  Level FlightAware
07:23PM 36.9510 -93.6200 30° Northeast 483 556 41,000  Level FlightAware
07:24PM 37.0230 -93.5700 29° Northeast 484 557 41,000  Level FlightAware
07:24PM 37.0930 -93.5200 30° Northeast 487 560 41,000  Level FlightAware
07:25PM 37.1550 -93.4770 29° Northeast 490 564 41,000  Level FlightAware
07:25PM 37.2280 -93.4250 30° Northeast 488 562 41,000  Level FlightAware
07:26PM 37.2980 -93.3750 30° Northeast 484 557 41,000  Level FlightAware
07:27PM 37.3660 -93.3230 31° Northeast 487 560 41,000  Level FlightAware
07:27PM 37.4320 -93.2640 35° Northeast 490 564 41,000  Level FlightAware
07:28PM 37.4940 -93.2070 36° Northeast 489 563 41,000  Level FlightAware
07:28PM 37.5590 -93.1470 36° Northeast 488 562 41,000  Level FlightAware
07:29PM 37.6170 -93.0930 36° Northeast 487 560 41,000  Level FlightAware
07:30PM 37.6830 -93.0320 36° Northeast 487 560 41,000  Level FlightAware
07:30PM 37.7480 -92.9710 37° Northeast 487 560 41,000  Level FlightAware
07:31PM 37.8140 -92.9100 36° Northeast 486 559 41,000  Level FlightAware
07:31PM 37.8700 -92.8580 36° Northeast 487 560 41,000  Level FlightAware
07:32PM 37.9320 -92.7990 37° Northeast 487 560 41,000  Level FlightAware
07:32PM 38.0030 -92.7330 36° Northeast 488 562 41,000  Level FlightAware
07:33PM 38.0570 -92.6810 37° Northeast 488 562 41,000  Level FlightAware
07:34PM 38.1260 -92.6160 37° Northeast 491 565 41,000  Level FlightAware
07:34PM 38.1890 -92.5570 36° Northeast 492 566 41,000  Level FlightAware
07:35PM 38.2580 -92.4920 36° Northeast 494 568 41,000  Level FlightAware
07:35PM 38.3090 -92.4440 36° Northeast 494 568 41,000  Level FlightAware
07:36PM 38.4000 -92.3580 37° Northeast 496 571 41,000  Level FlightAware
07:37PM 38.4860 -92.2770 36° Northeast 497 572 41,000  Level FlightAware
07:38PM 38.5420 -92.2240 37° Northeast 497 572 41,000  Level FlightAware
07:38PM 38.6140 -92.1520 38° Northeast 502 578 41,000  Level FlightAware
07:39PM 38.6680 -92.1010 36° Northeast 502 578 41,000  Level FlightAware
07:39PM 38.7460 -92.0250 37° Northeast 503 579 41,000  Level FlightAware
07:40PM 38.8120 -91.9610 37° Northeast 503 579 41,000  Level FlightAware
07:41PM 38.8910 -91.8850 37° Northeast 504 580 41,000  Level FlightAware
07:41PM 38.9450 -91.8330 37° Northeast 504 580 41,000  Level FlightAware
07:42PM 39.0320 -91.7480 37° Northeast 503 579 41,000  Level FlightAware
07:42PM 39.0950 -91.6870 37° Northeast 503 579 41,000  Level FlightAware
07:43PM 39.1560 -91.6270 37° Northeast 503 579 41,000  Level FlightAware
07:44PM 39.2280 -91.5560 37° Northeast 503 579 41,000 -420 Level FlightAware
07:44PM 39.3000 -91.4860 37° Northeast 503 579 40,500 -780 Descending FlightAware
07:45PM 39.3630 -91.4230 38° Northeast 506 582 40,100 -360 Descending FlightAware
07:45PM 39.4210 -91.3670 37° Northeast 506 582 40,100 -3,480 Level FlightAware
07:46PM 39.5000 -91.2890 37° Northeast 518 596 36,200 -4,500 Descending FlightAware
07:47PM 39.5690 -91.2200 38° Northeast 520 598 35,000 -1,080 Descending FlightAware
07:47PM 39.6320 -91.1560 38° Northeast 523 602 35,000  Level FlightAware
07:48PM 39.6990 -91.0890 38° Northeast 521 600 35,000 -420 Level FlightAware
07:48PM 39.7680 -91.0200 38° Northeast 516 594 34,500 -1,020 Descending FlightAware
07:49PM 39.8350 -90.9530 38° Northeast 517 595 33,800 -1,200 Descending FlightAware
07:49PM 39.9000 -90.8880 37° Northeast 518 596 33,100 -660 Descending FlightAware
07:50PM 39.9850 -90.8030 37° Northeast 516 594 33,000 -120 Descending FlightAware
07:51PM 40.0480 -90.7390 38° Northeast 517 595 33,000  Level FlightAware
07:51PM 40.1090 -90.6770 38° Northeast 517 595 33,000  Level FlightAware
07:52PM 40.1800 -90.6040 38° Northeast 519 597 33,000  Level FlightAware
07:53PM 40.2430 -90.5400 38° Northeast 520 598 33,000  Level FlightAware
07:53PM 40.3070 -90.4750 38° Northeast 521 600 33,000  Level FlightAware
07:54PM 40.3810 -90.3990 38° Northeast 523 602 33,000  Level FlightAware
07:54PM 40.4400 -90.3380 38° Northeast 524 603 33,000  Level FlightAware
07:55PM 40.5070 -90.2700 38° Northeast 525 604 33,000  Level FlightAware
07:55PM 40.5740 -90.2000 38° Northeast 527 606 33,000  Level FlightAware
07:56PM 40.6410 -90.1310 38° Northeast 528 608 33,000 -180 Level FlightAware
07:57PM 40.7130 -90.0560 38° Northeast 524 603 32,800 -900 Descending FlightAware
07:57PM 40.7800 -89.9860 38° Northeast 523 602 31,900 -1,500 Descending FlightAware
07:58PM 40.8460 -89.9180 38° Northeast 500 575 31,100 -1,920 Descending FlightAware
07:58PM 40.9050 -89.8560 38° Northeast 453 521 29,700 -2,580 Descending FlightAware
07:59PM 40.9570 -89.8010 39° Northeast 440 506 28,200 -2,340 Descending FlightAware
07:59PM 41.0060 -89.7500 38° Northeast 432 497 27,300 -1,920 Descending FlightAware
08:00PM 41.0730 -89.6800 38° Northeast 422 486 25,900 -1,980 Descending FlightAware
08:01PM 41.1230 -89.6270 39° Northeast 423 487 24,800 -2,160 Descending FlightAware
08:01PM 41.1710 -89.5570 48° Northeast 434 499 23,500 -2,220 Descending FlightAware
08:02PM 41.1980 -89.4930 61° Northeast 417 480 22,400 -2,220 Descending FlightAware
08:02PM 41.2340 -89.4060 61° Northeast 395 455 21,000 -2,160 Descending FlightAware
08:03PM 41.2610 -89.3370 62° Northeast 394 453 19,900 -2,160 Descending FlightAware
08:04PM 41.2910 -89.2620 62° Northeast 397 457 18,600 -2,340 Descending FlightAware
08:04PM 41.3230 -89.1830 62° Northeast 397 457 17,100 -2,340 Descending FlightAware
08:05PM 41.3520 -89.1120 61° Northeast 378 435 15,900 -2,160 Descending FlightAware
08:05PM 41.3800 -89.0420 62° Northeast 374 430 14,700 -2,100 Descending FlightAware
08:06PM 41.4090 -88.9690 62° Northeast 373 429 13,500 -1,980 Descending FlightAware
08:06PM 41.4360 -88.9000 62° Northeast 368 423 12,400 -1,980 Descending FlightAware
08:07PM 41.4640 -88.8310 62° Northeast 348 400 11,200 -1,380 Descending FlightAware
08:08PM 41.4900 -88.7650 62° Northeast 323 372 10,800 -360 Descending FlightAware
08:08PM 41.5120 -88.7090 62° Northeast 309 356 10,800  Level FlightAware
08:09PM 41.5350 -88.6490 63° Northeast 311 358 10,800  Level FlightAware
08:09PM 41.5600 -88.5890 61° Northeast 311 358 10,800 -120 Level FlightAware
08:10PM 41.5930 -88.5360 50° Northeast 305 351 10,700 -780 Descending FlightAware
08:11PM 41.6310 -88.4760 50° Northeast 302 348 9,800 -1,260 Descending FlightAware
08:11PM 41.6490 -88.4470 50° Northeast 297 342 9,400 -1,500 Descending FlightAware
08:11PM 41.6670 -88.4200 48° Northeast 293 337 8,800 -2,100 Descending FlightAware
08:12PM 41.6890 -88.3920 44° Northeast 289 333 7,900 -2,340 Descending FlightAware
08:12PM 41.7130 -88.3730 31° Northeast 281 323 7,100 -1,740 Descending FlightAware
08:12PM 41.7340 -88.3580 28° Northeast 282 325 6,800 -540 Descending FlightAware
08:13PM 41.7540 -88.3450 26° Northeast 282 325 6,800  Level FlightAware
08:13PM 41.7760 -88.3290 28° Northeast 270 311 6,800  Level FlightAware
08:13PM 41.7930 -88.3160 30° Northeast 256 295 6,800  Level FlightAware
08:14PM 41.8140 -88.3010 28° Northeast 240 276 6,800 -300 Level FlightAware
08:14PM 41.8320 -88.2880 28° Northeast 233 268 6,600 -1,080 Descending FlightAware
08:14PM 41.8520 -88.2740 28° Northeast 234 269 6,100 -1,320 Descending FlightAware
08:15PM 41.8710 -88.2600 29° Northeast 233 268 5,700 -1,200 Descending FlightAware
08:15PM 41.8900 -88.2460 29° Northeast 227 261 5,300 -1,620 Descending FlightAware
08:15PM 41.9060 -88.2340 29° Northeast 223 257 4,700 -2,220 Descending FlightAware
08:15PM 41.9170 -88.2260 28° Northeast 225 259 4,200 -1,740 Descending FlightAware
08:16PM 41.9280 -88.2090 49° Northeast 230 265 3,900 -720 Descending FlightAware
08:16PM 41.9390 -88.1860 57° Northeast 214 246 3,800 -480 Descending FlightAware
08:16PM 41.9500 -88.1640 56° Northeast 202 232 3,600 -720 Descending FlightAware
08:17PM 41.9610 -88.1410 57° Northeast 197 227 3,300 -660 Descending FlightAware
08:17PM 41.9670 -88.1240 65° Northeast 189 217 3,200 -600 Descending FlightAware
08:17PM 41.9680 -88.1200 71° East 188 216 3,100 -1,020 Descending FlightAware
08:17PM 41.9690 -88.1100 82° East 183 211 3,000 -840 Descending FlightAware
08:18PM 41.9680 -88.0810 93° East 176 203 2,600 -960 Descending FlightAware
08:18PM 41.9690 -88.0620 86° East 170 196 2,300 -900 Descending FlightAware
08:18PM 41.9690 -88.0370 90° East 161 185 2,000 -840 Descending FlightAware
08:19PM 41.9690 -88.0170 90° East 146 168 1,700 -900 Descending FlightAware
08:19PM 41.9690 -87.9980 90° East 138 159 1,400 -780 Descending FlightAware
08:20PM 41.9690 -87.9680 90° East 137 158 1,000 -720 Descending FlightAware
08:20PM 41.9690 -87.9510 90° East 136 157 800 -660 Descending FlightAware
08:20PM 41.9690 -87.9360 90° East 136 157 600 -360 Descending FlightAware
08:21PM 41.9690 -87.9090 90° East 135 155 500 -180 Descending FlightAware